sensor_id;sensor_type;location;lat;lon;timestamp;pressure;altitude;pressure_sealevel;temperature;humidity
39789;BME280;25478;42.626;23.320;2022-07-03T00:01:48;93586.75;;;18.49;93.88
39789;BME280;25478;42.626;23.320;2022-07-03T00:04:14;93599.91;;;18.60;93.84
39789;BME280;25478;42.626;23.320;2022-07-03T00:06:39;93594.56;;;18.60;93.95
39789;BME280;25478;42.626;23.320;2022-07-03T00:09:05;93590.13;;;18.53;93.83
39789;BME280;25478;42.626;23.320;2022-07-03T00:11:32;93593.88;;;18.55;94.11
39789;BME280;25478;42.626;23.320;2022-07-03T00:13:59;93599.53;;;18.57;94.21
39789;BME280;25478;42.626;23.320;2022-07-03T00:16:25;93595.38;;;18.56;93.99
39789;BME280;25478;42.626;23.320;2022-07-03T00:18:50;93589.72;;;18.54;94.23
39789;BME280;25478;42.626;23.320;2022-07-03T00:22:05;93593.97;;;18.52;94.47
39789;BME280;25478;42.626;23.320;2022-07-03T00:24:23;93606.72;;;18.41;94.32
39789;BME280;25478;42.626;23.320;2022-07-03T00:26:50;93597.59;;;18.42;94.83
39789;BME280;25478;42.626;23.320;2022-07-03T00:29:17;93602.09;;;18.45;95.06
39789;BME280;25478;42.626;23.320;2022-07-03T00:31:44;93599.00;;;18.46;95.22
39789;BME280;25478;42.626;23.320;2022-07-03T00:34:11;93597.50;;;18.45;95.37
39789;BME280;25478;42.626;23.320;2022-07-03T00:36:39;93577.19;;;18.32;95.53
39789;BME280;25478;42.626;23.320;2022-07-03T00:39:05;93588.00;;;18.44;95.63
39789;BME280;25478;42.626;23.320;2022-07-03T00:41:33;93588.47;;;18.39;95.68
39789;BME280;25478;42.626;23.320;2022-07-03T00:43:59;93580.06;;;18.41;95.76
39789;BME280;25478;42.626;23.320;2022-07-03T00:46:26;93569.22;;;18.32;95.78
39789;BME280;25478;42.626;23.320;2022-07-03T00:48:54;93579.41;;;18.37;95.72
39789;BME280;25478;42.626;23.320;2022-07-03T00:51:22;93574.06;;;18.37;95.80
39789;BME280;25478;42.626;23.320;2022-07-03T00:53:54;93562.31;;;18.34;95.71
39789;BME280;25478;42.626;23.320;2022-07-03T00:56:26;93568.00;;;18.36;95.52
39789;BME280;25478;42.626;23.320;2022-07-03T00:58:55;93564.63;;;18.32;95.65
39789;BME280;25478;42.626;23.320;2022-07-03T01:01:24;93565.03;;;18.31;95.67
39789;BME280;25478;42.626;23.320;2022-07-03T01:07:06;93558.72;;;18.24;96.09
39789;BME280;25478;42.626;23.320;2022-07-03T01:15:18;93558.88;;;18.14;96.27
39789;BME280;25478;42.626;23.320;2022-07-03T01:17:55;93562.38;;;18.11;96.49
39789;BME280;25478;42.626;23.320;2022-07-03T01:20:27;93556.72;;;18.09;96.52
39789;BME280;25478;42.626;23.320;2022-07-03T01:22:58;93561.69;;;18.07;96.99
39789;BME280;25478;42.626;23.320;2022-07-03T01:25:57;93551.53;;;18.02;96.84
39789;BME280;25478;42.626;23.320;2022-07-03T01:28:26;93556.09;;;18.01;97.32
39789;BME280;25478;42.626;23.320;2022-07-03T01:30:54;93556.09;;;18.01;97.54
39789;BME280;25478;42.626;23.320;2022-07-03T01:33:24;93559.19;;;17.99;97.47
39789;BME280;25478;42.626;23.320;2022-07-03T01:36:09;93554.22;;;17.98;97.69
39789;BME280;25478;42.626;23.320;2022-07-03T01:38:39;93546.66;;;17.96;97.79
39789;BME280;25478;42.626;23.320;2022-07-03T01:41:09;93548.97;;;17.94;97.81
39789;BME280;25478;42.626;23.320;2022-07-03T01:43:44;93552.06;;;17.93;97.78
39789;BME280;25478;42.626;23.320;2022-07-03T01:46:12;93536.00;;;17.77;97.89
39789;BME280;25478;42.626;23.320;2022-07-03T01:48:41;93556.69;;;17.89;97.94
39789;BME280;25478;42.626;23.320;2022-07-03T01:51:09;93557.50;;;17.86;97.89
39789;BME280;25478;42.626;23.320;2022-07-03T01:53:36;93559.41;;;17.85;98.00
39789;BME280;25478;42.626;23.320;2022-07-03T01:56:02;93561.34;;;17.85;97.81
39789;BME280;25478;42.626;23.320;2022-07-03T01:58:28;93560.22;;;17.82;97.54
39789;BME280;25478;42.626;23.320;2022-07-03T02:01:15;93563.38;;;17.77;97.60
39789;BME280;25478;42.626;23.320;2022-07-03T02:03:51;93567.66;;;17.71;97.72
39789;BME280;25478;42.626;23.320;2022-07-03T02:09:05;93563.16;;;17.64;98.37
39789;BME280;25478;42.626;23.320;2022-07-03T02:11:40;93563.66;;;17.59;98.97
39789;BME280;25478;42.626;23.320;2022-07-03T02:14:38;93563.31;;;17.57;98.77
39789;BME280;25478;42.626;23.320;2022-07-03T02:22:26;93542.47;;;17.52;99.29
39789;BME280;25478;42.626;23.320;2022-07-03T02:25:00;93554.91;;;17.59;99.01
39789;BME280;25478;42.626;23.320;2022-07-03T02:27:32;93553.13;;;17.52;99.09
39789;BME280;25478;42.626;23.320;2022-07-03T02:30:07;93547.06;;;17.48;99.43
39789;BME280;25478;42.626;23.320;2022-07-03T02:32:36;93553.56;;;17.47;99.55
39789;BME280;25478;42.626;23.320;2022-07-03T02:35:07;93548.25;;;17.47;99.67
39789;BME280;25478;42.626;23.320;2022-07-03T02:37:37;93551.66;;;17.48;99.53
39789;BME280;25478;42.626;23.320;2022-07-03T02:40:07;93563.88;;;17.45;99.45
39789;BME280;25478;42.626;23.320;2022-07-03T02:42:43;93565.03;;;17.44;99.59
39789;BME280;25478;42.626;23.320;2022-07-03T02:45:11;93551.16;;;17.33;99.41
39789;BME280;25478;42.626;23.320;2022-07-03T02:50:12;93572.72;;;17.38;99.79
39789;BME280;25478;42.626;23.320;2022-07-03T02:52:47;93574.28;;;17.36;99.76
39789;BME280;25478;42.626;23.320;2022-07-03T02:55:33;93568.97;;;17.36;99.71
39789;BME280;25478;42.626;23.320;2022-07-03T03:03:21;93568.97;;;17.36;100.00
39789;BME280;25478;42.626;23.320;2022-07-03T03:05:52;93569.38;;;17.34;100.00
39789;BME280;25478;42.626;23.320;2022-07-03T03:08:42;93578.41;;;17.40;100.00
39789;BME280;25478;42.626;23.320;2022-07-03T03:11:20;93578.03;;;17.38;100.00
39789;BME280;25478;42.626;23.320;2022-07-03T03:13:50;93581.81;;;17.41;100.00
39789;BME280;25478;42.626;23.320;2022-07-03T03:16:20;93577.25;;;17.41;100.00
39789;BME280;25478;42.626;23.320;2022-07-03T03:18:47;93581.41;;;17.42;100.00
39789;BME280;25478;42.626;23.320;2022-07-03T03:21:16;93582.16;;;17.43;100.00
39789;BME280;25478;42.626;23.320;2022-07-03T03:23:47;93585.91;;;17.45;100.00
39789;BME280;25478;42.626;23.320;2022-07-03T03:26:24;93584.72;;;17.50;99.99
39789;BME280;25478;42.626;23.320;2022-07-03T03:28:51;93578.97;;;17.52;100.00
39789;BME280;25478;42.626;23.320;2022-07-03T03:31:17;93576.31;;;17.52;100.00
39789;BME280;25478;42.626;23.320;2022-07-03T03:33:49;93579.28;;;17.57;99.75
39789;BME280;25478;42.626;23.320;2022-07-03T03:36:17;93589.84;;;17.61;99.84
39789;BME280;25478;42.626;23.320;2022-07-03T03:38:43;93582.53;;;17.65;99.67
39789;BME280;25478;42.626;23.320;2022-07-03T03:41:09;93597.28;;;17.73;99.60
39789;BME280;25478;42.626;23.320;2022-07-03T03:43:35;93593.75;;;17.80;99.23
39789;BME280;25478;42.626;23.320;2022-07-03T03:46:01;93587.56;;;17.86;99.13
39789;BME280;25478;42.626;23.320;2022-07-03T03:48:27;93589.69;;;17.95;98.98
39789;BME280;25478;42.626;23.320;2022-07-03T03:50:54;93590.66;;;18.05;98.97
39789;BME280;25478;42.626;23.320;2022-07-03T03:53:20;93582.53;;;18.12;98.51
39789;BME280;25478;42.626;23.320;2022-07-03T03:56:06;93593.41;;;18.21;97.89
39789;BME280;25478;42.626;23.320;2022-07-03T03:58:34;93588.34;;;18.26;97.65
39789;BME280;25478;42.626;23.320;2022-07-03T04:01:02;93594.69;;;18.33;97.40
39789;BME280;25478;42.626;23.320;2022-07-03T04:03:29;93597.22;;;18.40;97.34
39789;BME280;25478;42.626;23.320;2022-07-03T04:05:55;93597.09;;;18.47;97.52
39789;BME280;25478;42.626;23.320;2022-07-03T04:08:21;93592.38;;;18.54;97.46
39789;BME280;25478;42.626;23.320;2022-07-03T04:10:48;93590.00;;;18.60;96.64
39789;BME280;25478;42.626;23.320;2022-07-03T04:13:15;93585.69;;;18.66;96.38
39789;BME280;25478;42.626;23.320;2022-07-03T04:15:41;93578.47;;;18.67;95.79
39789;BME280;25478;42.626;23.320;2022-07-03T04:18:07;93588.06;;;18.80;94.64
39789;BME280;25478;42.626;23.320;2022-07-03T04:20:32;93588.25;;;18.90;94.22
39789;BME280;25478;42.626;23.320;2022-07-03T04:22:58;93577.00;;;18.98;93.32
39789;BME280;25478;42.626;23.320;2022-07-03T04:25:24;93583.78;;;19.03;92.77
39789;BME280;25478;42.626;23.320;2022-07-03T04:27:50;93589.44;;;19.05;92.62
39789;BME280;25478;42.626;23.320;2022-07-03T04:30:15;93589.72;;;19.10;93.21
39789;BME280;25478;42.626;23.320;2022-07-03T04:32:41;93580.53;;;19.11;93.60
39789;BME280;25478;42.626;23.320;2022-07-03T04:35:07;93578.94;;;19.14;93.65
39789;BME280;25478;42.626;23.320;2022-07-03T04:37:33;93586.31;;;19.26;92.26
39789;BME280;25478;42.626;23.320;2022-07-03T04:39:58;93583.31;;;19.40;91.17
39789;BME280;25478;42.626;23.320;2022-07-03T04:42:24;93589.16;;;19.52;89.91
39789;BME280;25478;42.626;23.320;2022-07-03T04:44:49;93585.34;;;19.69;88.39
39789;BME280;25478;42.626;23.320;2022-07-03T04:47:15;93583.13;;;19.96;87.22
39789;BME280;25478;42.626;23.320;2022-07-03T04:49:44;93583.22;;;20.22;85.79
39789;BME280;25478;42.626;23.320;2022-07-03T04:52:09;93576.19;;;20.28;85.01
39789;BME280;25478;42.626;23.320;2022-07-03T04:54:35;93594.13;;;20.44;84.43
39789;BME280;25478;42.626;23.320;2022-07-03T04:57:02;93592.53;;;20.46;85.24
39789;BME280;25478;42.626;23.320;2022-07-03T04:59:27;93592.34;;;20.54;85.18
39789;BME280;25478;42.626;23.320;2022-07-03T05:01:53;93584.78;;;20.77;84.03
39789;BME280;25478;42.626;23.320;2022-07-03T05:04:19;93583.63;;;21.17;82.08
39789;BME280;25478;42.626;23.320;2022-07-03T05:06:45;93582.31;;;21.59;79.99
39789;BME280;25478;42.626;23.320;2022-07-03T05:09:11;93584.38;;;22.03;78.14
39789;BME280;25478;42.626;23.320;2022-07-03T05:11:36;93589.44;;;22.57;74.77
39789;BME280;25478;42.626;23.320;2022-07-03T05:14:03;93591.25;;;23.13;72.69
39789;BME280;25478;42.626;23.320;2022-07-03T05:16:29;93591.44;;;23.68;70.48
39789;BME280;25478;42.626;23.320;2022-07-03T05:18:54;93576.72;;;24.00;69.17
39789;BME280;25478;42.626;23.320;2022-07-03T05:21:20;93582.84;;;24.37;67.75
39789;BME280;25478;42.626;23.320;2022-07-03T05:23:45;93583.56;;;24.75;66.29
39789;BME280;25478;42.626;23.320;2022-07-03T05:26:11;93578.28;;;24.98;64.19
39789;BME280;25478;42.626;23.320;2022-07-03T05:28:37;93587.69;;;24.94;63.93
39789;BME280;25478;42.626;23.320;2022-07-03T05:31:02;93579.63;;;25.03;63.96
39789;BME280;25478;42.626;23.320;2022-07-03T05:33:28;93588.59;;;25.09;63.32
39789;BME280;25478;42.626;23.320;2022-07-03T05:35:55;93590.22;;;25.16;63.18
39789;BME280;25478;42.626;23.320;2022-07-03T05:38:20;93594.19;;;25.30;63.76
39789;BME280;25478;42.626;23.320;2022-07-03T05:41:10;93595.84;;;25.60;62.17
39789;BME280;25478;42.626;23.320;2022-07-03T05:43:35;93587.47;;;25.91;59.84
39789;BME280;25478;42.626;23.320;2022-07-03T05:46:01;93590.63;;;25.90;59.70
39789;BME280;25478;42.626;23.320;2022-07-03T05:48:26;93579.44;;;25.82;59.50
39789;BME280;25478;42.626;23.320;2022-07-03T05:50:52;93602.03;;;25.85;58.61
39789;BME280;25478;42.626;23.320;2022-07-03T05:53:18;93597.50;;;25.91;58.79
39789;BME280;25478;42.626;23.320;2022-07-03T05:55:43;93601.06;;;25.97;58.51
39789;BME280;25478;42.626;23.320;2022-07-03T05:58:09;93603.19;;;25.93;58.34
39789;BME280;25478;42.626;23.320;2022-07-03T06:00:35;93612.94;;;25.90;57.83
39789;BME280;25478;42.626;23.320;2022-07-03T06:03:00;93607.91;;;25.83;58.19
39789;BME280;25478;42.626;23.320;2022-07-03T06:05:28;93604.63;;;26.03;58.04
39789;BME280;25478;42.626;23.320;2022-07-03T06:07:53;93613.50;;;26.18;57.22
39789;BME280;25478;42.626;23.320;2022-07-03T06:10:19;93591.75;;;25.98;56.83
39789;BME280;25478;42.626;23.320;2022-07-03T06:12:44;93608.53;;;26.02;56.92
39789;BME280;25478;42.626;23.320;2022-07-03T06:15:10;93606.69;;;26.08;57.40
39789;BME280;25478;42.626;23.320;2022-07-03T06:17:36;93604.28;;;26.10;56.86
39789;BME280;25478;42.626;23.320;2022-07-03T06:20:05;93602.84;;;26.00;57.57
39789;BME280;25478;42.626;23.320;2022-07-03T06:22:32;93610.53;;;26.16;57.21
39789;BME280;25478;42.626;23.320;2022-07-03T06:24:58;93612.69;;;26.27;56.69
39789;BME280;25478;42.626;23.320;2022-07-03T06:27:24;93599.34;;;26.23;56.43
39789;BME280;25478;42.626;23.320;2022-07-03T06:29:49;93594.66;;;26.33;56.55
39789;BME280;25478;42.626;23.320;2022-07-03T06:32:16;93608.97;;;26.63;56.06
39789;BME280;25478;42.626;23.320;2022-07-03T06:34:41;93610.09;;;26.86;55.09
39789;BME280;25478;42.626;23.320;2022-07-03T06:37:09;93603.91;;;27.09;53.85
39789;BME280;25478;42.626;23.320;2022-07-03T06:39:34;93600.88;;;27.37;52.85
39789;BME280;25478;42.626;23.320;2022-07-03T06:42:00;93595.47;;;27.37;53.18
39789;BME280;25478;42.626;23.320;2022-07-03T06:44:25;93594.28;;;27.23;53.89
39789;BME280;25478;42.626;23.320;2022-07-03T06:46:51;93607.78;;;27.38;52.71
39789;BME280;25478;42.626;23.320;2022-07-03T06:49:16;93602.19;;;27.27;52.72
39789;BME280;25478;42.626;23.320;2022-07-03T06:51:42;93604.81;;;27.21;53.17
39789;BME280;25478;42.626;23.320;2022-07-03T06:54:08;93605.28;;;27.19;53.04
39789;BME280;25478;42.626;23.320;2022-07-03T06:56:33;93603.53;;;27.16;52.47
39789;BME280;25478;42.626;23.320;2022-07-03T06:58:58;93605.47;;;27.01;51.83
39789;BME280;25478;42.626;23.320;2022-07-03T07:01:24;93605.34;;;26.96;52.52
39789;BME280;25478;42.626;23.320;2022-07-03T07:03:50;93601.75;;;27.13;52.86
39789;BME280;25478;42.626;23.320;2022-07-03T07:06:15;93597.06;;;27.43;52.28
39789;BME280;25478;42.626;23.320;2022-07-03T07:08:41;93601.66;;;27.72;51.67
39789;BME280;25478;42.626;23.320;2022-07-03T07:11:06;93595.84;;;27.65;51.05
39789;BME280;25478;42.626;23.320;2022-07-03T07:13:32;93602.59;;;27.55;50.58
39789;BME280;25478;42.626;23.320;2022-07-03T07:15:58;93596.84;;;27.47;51.32
39789;BME280;25478;42.626;23.320;2022-07-03T07:18:23;93607.16;;;27.63;50.99
39789;BME280;25478;42.626;23.320;2022-07-03T07:20:49;93599.41;;;27.71;50.97
39789;BME280;25478;42.626;23.320;2022-07-03T07:23:14;93606.41;;;27.77;50.25
39789;BME280;25478;42.626;23.320;2022-07-03T07:25:40;93599.78;;;27.99;50.09
39789;BME280;25478;42.626;23.320;2022-07-03T07:28:05;93600.69;;;28.11;49.69
39789;BME280;25478;42.626;23.320;2022-07-03T07:30:31;93593.63;;;27.98;50.08
39789;BME280;25478;42.626;23.320;2022-07-03T07:32:56;93589.81;;;27.90;50.08
39789;BME280;25478;42.626;23.320;2022-07-03T07:35:22;93576.38;;;27.75;50.85
39789;BME280;25478;42.626;23.320;2022-07-03T07:37:47;93582.88;;;27.84;50.94
39789;BME280;25478;42.626;23.320;2022-07-03T07:40:13;93577.78;;;27.71;51.55
39789;BME280;25478;42.626;23.320;2022-07-03T07:42:39;93574.13;;;27.74;51.26
39789;BME280;25478;42.626;23.320;2022-07-03T07:45:05;93590.56;;;27.91;51.04
39789;BME280;25478;42.626;23.320;2022-07-03T07:47:31;93584.84;;;28.03;50.91
39789;BME280;25478;42.626;23.320;2022-07-03T07:49:56;93585.78;;;28.21;50.93
39789;BME280;25478;42.626;23.320;2022-07-03T07:52:22;93589.72;;;28.20;50.64
39789;BME280;25478;42.626;23.320;2022-07-03T07:54:49;93590.25;;;28.03;50.31
39789;BME280;25478;42.626;23.320;2022-07-03T07:57:15;93587.81;;;27.85;51.36
39789;BME280;25478;42.626;23.320;2022-07-03T07:59:40;93591.88;;;27.75;51.65
39789;BME280;25478;42.626;23.320;2022-07-03T08:02:06;93591.00;;;27.84;51.63
39789;BME280;25478;42.626;23.320;2022-07-03T08:04:50;93586.69;;;27.92;51.96
39789;BME280;25478;42.626;23.320;2022-07-03T08:07:34;93583.88;;;27.86;51.47
39789;BME280;25478;42.626;23.320;2022-07-03T08:10:00;93577.19;;;27.82;51.68
39789;BME280;25478;42.626;23.320;2022-07-03T08:12:25;93568.31;;;27.81;52.03
39789;BME280;25478;42.626;23.320;2022-07-03T08:14:51;93577.59;;;27.95;51.72
39789;BME280;25478;42.626;23.320;2022-07-03T08:17:16;93584.75;;;27.98;51.46
39789;BME280;25478;42.626;23.320;2022-07-03T08:19:42;93579.91;;;28.02;51.56
39789;BME280;25478;42.626;23.320;2022-07-03T08:22:07;93570.88;;;27.90;51.71
39789;BME280;25478;42.626;23.320;2022-07-03T08:24:33;93576.72;;;27.83;52.34
39789;BME280;25478;42.626;23.320;2022-07-03T08:26:58;93570.88;;;27.90;52.13
39789;BME280;25478;42.626;23.320;2022-07-03T08:29:24;93575.25;;;28.02;52.20
39789;BME280;25478;42.626;23.320;2022-07-03T08:31:50;93577.00;;;28.05;52.04
39789;BME280;25478;42.626;23.320;2022-07-03T08:34:15;93578.06;;;28.14;52.67
39789;BME280;25478;42.626;23.320;2022-07-03T08:36:41;93574.53;;;28.28;51.44
39789;BME280;25478;42.626;23.320;2022-07-03T08:39:07;93574.66;;;28.34;51.09
39789;BME280;25478;42.626;23.320;2022-07-03T08:41:36;93570.28;;;28.42;51.28
39789;BME280;25478;42.626;23.320;2022-07-03T08:44:02;93568.84;;;28.46;50.14
39789;BME280;25478;42.626;23.320;2022-07-03T08:46:31;93564.66;;;28.45;50.48
39789;BME280;25478;42.626;23.320;2022-07-03T08:48:59;93569.00;;;28.37;51.25
39789;BME280;25478;42.626;23.320;2022-07-03T08:51:26;93569.50;;;28.36;50.60
39789;BME280;25478;42.626;23.320;2022-07-03T08:53:53;93567.84;;;28.44;50.85
39789;BME280;25478;42.626;23.320;2022-07-03T08:56:22;93565.47;;;28.51;51.02
39789;BME280;25478;42.626;23.320;2022-07-03T08:58:49;93544.16;;;28.39;50.82
39789;BME280;25478;42.626;23.320;2022-07-03T09:01:15;93559.44;;;28.42;51.20
39789;BME280;25478;42.626;23.320;2022-07-03T09:03:42;93554.31;;;28.44;50.14
39789;BME280;25478;42.626;23.320;2022-07-03T09:06:08;93566.38;;;28.43;48.46
39789;BME280;25478;42.626;23.320;2022-07-03T09:08:34;93560.16;;;28.37;48.89
39789;BME280;25478;42.626;23.320;2022-07-03T09:11:02;93560.66;;;28.41;48.68
39789;BME280;25478;42.626;23.320;2022-07-03T09:13:28;93541.72;;;28.41;46.96
39789;BME280;25478;42.626;23.320;2022-07-03T09:15:54;93560.94;;;28.43;46.24
39789;BME280;25478;42.626;23.320;2022-07-03T09:18:41;93550.13;;;28.43;46.14
39789;BME280;25478;42.626;23.320;2022-07-03T09:21:07;93560.22;;;28.42;45.17
39789;BME280;25478;42.626;23.320;2022-07-03T09:23:40;93558.84;;;28.32;44.69
39789;BME280;25478;42.626;23.320;2022-07-03T09:26:06;93549.91;;;28.26;44.71
39789;BME280;25478;42.626;23.320;2022-07-03T09:31:16;93551.81;;;28.20;45.74
39789;BME280;25478;42.626;23.320;2022-07-03T09:33:54;93560.00;;;28.25;45.37
39789;BME280;25478;42.626;23.320;2022-07-03T09:39:27;93555.94;;;28.36;44.16
39789;BME280;25478;42.626;23.320;2022-07-03T09:42:01;93530.22;;;28.25;43.57
39789;BME280;25478;42.626;23.320;2022-07-03T09:49:54;93565.41;;;28.25;42.29
39789;BME280;25478;42.626;23.320;2022-07-03T09:55:11;93551.47;;;28.32;41.28
39789;BME280;25478;42.626;23.320;2022-07-03T09:57:38;93553.25;;;28.36;40.75
39789;BME280;25478;42.626;23.320;2022-07-03T10:00:14;93548.84;;;28.38;39.90
39789;BME280;25478;42.626;23.320;2022-07-03T10:02:59;93542.75;;;28.43;40.25
39789;BME280;25478;42.626;23.320;2022-07-03T10:08:06;93541.63;;;28.55;37.98
39789;BME280;25478;42.626;23.320;2022-07-03T10:10:36;93542.34;;;28.56;37.47
39789;BME280;25478;42.626;23.320;2022-07-03T10:13:03;93548.78;;;28.58;36.61
39789;BME280;25478;42.626;23.320;2022-07-03T10:15:31;93484.63;;;28.18;36.78
39789;BME280;25478;42.626;23.320;2022-07-03T10:17:58;93538.00;;;28.64;37.36
39789;BME280;25478;42.626;23.320;2022-07-03T10:20:29;93538.72;;;28.59;37.00
39789;BME280;25478;42.626;23.320;2022-07-03T10:22:56;93536.75;;;28.59;35.66
39789;BME280;25478;42.626;23.320;2022-07-03T10:25:22;93536.94;;;28.56;34.53
39789;BME280;25478;42.626;23.320;2022-07-03T10:27:49;93534.56;;;28.64;33.66
39789;BME280;25478;42.626;23.320;2022-07-03T10:30:19;93533.69;;;28.78;34.04
39789;BME280;25478;42.626;23.320;2022-07-03T10:32:47;93530.91;;;28.93;34.66
39789;BME280;25478;42.626;23.320;2022-07-03T10:35:14;93528.53;;;29.06;34.56
39789;BME280;25478;42.626;23.320;2022-07-03T10:43:19;93527.06;;;29.48;32.84
39789;BME280;25478;42.626;23.320;2022-07-03T10:46:10;93524.84;;;29.46;32.15
39789;BME280;25478;42.626;23.320;2022-07-03T10:49:03;93517.69;;;29.49;33.21
39789;BME280;25478;42.626;23.320;2022-07-03T10:51:53;93522.94;;;29.52;32.76
39789;BME280;25478;42.626;23.320;2022-07-03T10:54:29;93503.72;;;29.56;33.37
39789;BME280;25478;42.626;23.320;2022-07-03T11:07:34;93505.63;;;29.50;33.40
39789;BME280;25478;42.626;23.320;2022-07-03T11:15:51;93495.66;;;28.93;34.77
39789;BME280;25478;42.626;23.320;2022-07-03T11:18:25;93498.03;;;28.85;36.05
39789;BME280;25478;42.626;23.320;2022-07-03T11:26:00;93481.22;;;29.07;36.35
39789;BME280;25478;42.626;23.320;2022-07-03T11:38:37;93455.22;;;28.57;34.79
39789;BME280;25478;42.626;23.320;2022-07-03T11:41:07;93471.16;;;28.50;35.48
39789;BME280;25478;42.626;23.320;2022-07-03T11:43:33;93467.97;;;28.51;35.08
39789;BME280;25478;42.626;23.320;2022-07-03T11:46:03;93470.47;;;28.55;34.69
39789;BME280;25478;42.626;23.320;2022-07-03T11:48:29;93465.03;;;28.55;35.43
39789;BME280;25478;42.626;23.320;2022-07-03T11:51:03;93459.19;;;28.62;35.57
39789;BME280;25478;42.626;23.320;2022-07-03T11:53:39;93444.44;;;28.63;35.42
39789;BME280;25478;42.626;23.320;2022-07-03T11:56:09;93464.56;;;28.88;35.93
39789;BME280;25478;42.626;23.320;2022-07-03T11:58:51;93457.53;;;29.02;35.66
39789;BME280;25478;42.626;23.320;2022-07-03T12:03:52;93458.09;;;29.11;34.99
39789;BME280;25478;42.626;23.320;2022-07-03T12:06:19;93471.94;;;29.19;35.10
39789;BME280;25478;42.626;23.320;2022-07-03T12:08:45;93458.69;;;29.27;34.67
39789;BME280;25478;42.626;23.320;2022-07-03T12:11:16;93461.19;;;29.36;34.18
39789;BME280;25478;42.626;23.320;2022-07-03T12:13:43;93464.94;;;29.44;34.97
39789;BME280;25478;42.626;23.320;2022-07-03T12:16:11;93450.38;;;29.47;35.46
39789;BME280;25478;42.626;23.320;2022-07-03T12:18:56;93461.50;;;29.49;35.20
39789;BME280;25478;42.626;23.320;2022-07-03T12:21:22;93456.03;;;29.43;35.36
39789;BME280;25478;42.626;23.320;2022-07-03T12:23:49;93454.06;;;29.44;35.51
39789;BME280;25478;42.626;23.320;2022-07-03T12:28:53;93441.56;;;29.58;36.23
39789;BME280;25478;42.626;23.320;2022-07-03T12:31:19;93426.03;;;29.53;36.07
39789;BME280;25478;42.626;23.320;2022-07-03T12:33:45;93439.63;;;29.64;36.68
39789;BME280;25478;42.626;23.320;2022-07-03T12:36:12;93436.41;;;29.65;37.03
39789;BME280;25478;42.626;23.320;2022-07-03T12:38:38;93446.31;;;29.74;37.25
39789;BME280;25478;42.626;23.320;2022-07-03T12:41:07;93437.44;;;29.74;37.08
39789;BME280;25478;42.626;23.320;2022-07-03T12:43:40;93442.84;;;29.68;37.17
39789;BME280;25478;42.626;23.320;2022-07-03T12:46:23;93442.81;;;29.57;36.92
39789;BME280;25478;42.626;23.320;2022-07-03T12:48:52;93443.69;;;29.42;37.00
39789;BME280;25478;42.626;23.320;2022-07-03T12:51:47;93440.19;;;29.31;36.90
39789;BME280;25478;42.626;23.320;2022-07-03T12:56:39;93442.13;;;29.25;37.80
39789;BME280;25478;42.626;23.320;2022-07-03T12:59:05;93444.88;;;29.30;37.64
39789;BME280;25478;42.626;23.320;2022-07-03T13:02:01;93434.81;;;29.42;37.72
39789;BME280;25478;42.626;23.320;2022-07-03T13:04:30;93431.41;;;29.47;37.74
39789;BME280;25478;42.626;23.320;2022-07-03T13:07:03;93434.91;;;29.53;37.06
39789;BME280;25478;42.626;23.320;2022-07-03T13:09:29;93432.94;;;29.59;36.85
39789;BME280;25478;42.626;23.320;2022-07-03T13:11:54;93432.25;;;29.70;36.92
39789;BME280;25478;42.626;23.320;2022-07-03T13:14:20;93427.84;;;29.78;36.07
39789;BME280;25478;42.626;23.320;2022-07-03T13:16:47;93420.72;;;29.92;36.60
39789;BME280;25478;42.626;23.320;2022-07-03T13:19:18;93422.69;;;29.97;36.38
39789;BME280;25478;42.626;23.320;2022-07-03T13:21:45;93420.72;;;29.92;36.74
39789;BME280;25478;42.626;23.320;2022-07-03T13:24:12;93423.47;;;30.09;36.61
39789;BME280;25478;42.626;23.320;2022-07-03T13:26:38;93428.19;;;30.14;36.53
39789;BME280;25478;42.626;23.320;2022-07-03T13:29:04;93424.00;;;30.13;36.21
39789;BME280;25478;42.626;23.320;2022-07-03T13:31:30;93420.03;;;30.08;35.76
39789;BME280;25478;42.626;23.320;2022-07-03T13:33:56;93415.06;;;29.95;35.89
39789;BME280;25478;42.626;23.320;2022-07-03T13:36:25;93419.69;;;29.78;36.58
39789;BME280;25478;42.626;23.320;2022-07-03T13:38:50;93408.31;;;29.63;36.75
39789;BME280;25478;42.626;23.320;2022-07-03T13:41:16;93406.81;;;29.56;36.88
39789;BME280;25478;42.626;23.320;2022-07-03T13:43:41;93401.31;;;29.45;37.38
39789;BME280;25478;42.626;23.320;2022-07-03T13:46:07;93412.69;;;29.49;37.86
39789;BME280;25478;42.626;23.320;2022-07-03T13:48:33;93398.59;;;29.45;37.82
39789;BME280;25478;42.626;23.320;2022-07-03T13:50:58;93417.09;;;29.47;37.44
39789;BME280;25478;42.626;23.320;2022-07-03T13:53:24;93402.28;;;29.36;37.65
39789;BME280;25478;42.626;23.320;2022-07-03T13:55:49;93402.03;;;29.40;38.46
39789;BME280;25478;42.626;23.320;2022-07-03T13:58:15;93379.09;;;29.35;38.26
39789;BME280;25478;42.626;23.320;2022-07-03T14:00:40;93397.63;;;29.48;37.57
39789;BME280;25478;42.626;23.320;2022-07-03T14:03:06;93395.66;;;29.49;37.46
39789;BME280;25478;42.626;23.320;2022-07-03T14:05:31;93391.69;;;29.44;37.75
39789;BME280;25478;42.626;23.320;2022-07-03T14:07:57;93386.75;;;29.42;37.83
39789;BME280;25478;42.626;23.320;2022-07-03T14:10:23;93390.69;;;29.41;37.99
39789;BME280;25478;42.626;23.320;2022-07-03T14:12:50;93385.00;;;29.34;37.74
39789;BME280;25478;42.626;23.320;2022-07-03T14:15:16;93379.56;;;29.28;38.20
39789;BME280;25478;42.626;23.320;2022-07-03T14:17:42;93371.59;;;29.13;38.73
39789;BME280;25478;42.626;23.320;2022-07-03T14:20:11;93380.47;;;29.14;38.70
39789;BME280;25478;42.626;23.320;2022-07-03T14:22:38;93384.38;;;29.02;38.92
39789;BME280;25478;42.626;23.320;2022-07-03T14:25:04;93390.72;;;28.93;40.09